sim
Sign-in with your pilot id or email,
or register
Callsign
Passwort

Schedule Details

Flight Number: DLH2025
Departure: Dusseldorf International Airport (EDDL) at 06:25
Arrival: Munich Airport (EDDM) at 07:35
Route: Lufthansa Passenger Schedule. Enter filed route here before submitting Pirep.

Weather Information
Getting current METAR information for EDDL 221550Z VRB02KT CAVOK 25/08 Q1007 NOSIG
Getting current METAR information for EDDM 221550Z VRB02KT 9999 FEW040CB 23/14 Q1010 NOSIG

Schedule Frequency

Route Map